Time;durP1;ratioP1;P1;durP2;ratioP2;P2;SDS_P1;SDS_P2;PMS_P1;PMS_P2;Temp;Humidity;BMP_temperature;BMP_pressure;BME280_temperature;BME280_humidity;BME280_pressure;Samples;Min_cycle;Max_cycle;Signal;HPM_P1;HPM_P2
2021/07/17 00:00:14;;;;;;;10.43;8.93;;;24.20;99.90;;;;;;5070792;28;20264;-73
2021/07/17 00:02:40;;;;;;;11.18;8.65;;;24.20;99.90;;;;;;5071210;28;20207;-73
2021/07/17 00:05:08;;;;;;;10.55;9.52;;;24.20;99.90;;;;;;5071231;28;20211;-73
2021/07/17 00:07:34;;;;;;;9.40;8.48;;;24.20;99.90;;;;;;5071345;28;20269;-73
2021/07/17 00:10:03;;;;;;;11.68;9.63;;;24.20;99.90;;;;;;5069788;28;20243;-75
2021/07/17 00:12:30;;;;;;;10.25;9.15;;;24.10;99.90;;;;;;5070138;28;20242;-75
2021/07/17 00:14:56;;;;;;;9.45;8.65;;;24.10;99.90;;;;;;5070059;28;20230;-75
2021/07/17 00:17:23;;;;;;;9.60;8.60;;;24.10;99.90;;;;;;5069616;28;20199;-75
2021/07/17 00:19:50;;;;;;;9.40;8.52;;;24.10;99.90;;;;;;5069678;28;20231;-75
2021/07/17 00:22:16;;;;;;;9.25;8.30;;;24.10;99.90;;;;;;5069680;28;20211;-75
2021/07/17 00:24:43;;;;;;;9.90;8.98;;;24.10;99.90;;;;;;5070031;28;20261;-75
2021/07/17 00:27:11;;;;;;;8.93;8.02;;;24.10;99.90;;;;;;5068820;28;20794;-76
2021/07/17 00:29:37;;;;;;;10.00;8.65;;;24.00;99.90;;;;;;5069609;28;20204;-75
2021/07/17 00:32:04;;;;;;;10.65;8.10;;;24.00;99.90;;;;;;5069942;28;20204;-75
2021/07/17 00:34:31;;;;;;;12.10;8.60;;;24.00;99.90;;;;;;5069724;28;20227;-75
2021/07/17 00:36:58;;;;;;;9.80;8.30;;;24.00;99.90;;;;;;5069351;28;20949;-75
2021/07/17 00:39:24;;;;;;;9.07;8.18;;;24.00;99.90;;;;;;5069412;28;20231;-75
2021/07/17 00:41:53;;;;;;;8.70;7.70;;;24.00;99.90;;;;;;5069695;28;20638;-75
2021/07/17 00:44:21;;;;;;;9.75;8.60;;;24.00;99.90;;;;;;5069378;28;20350;-75
2021/07/17 00:46:49;;;;;;;9.05;7.93;;;24.10;99.90;;;;;;5069376;28;20675;-74
2021/07/17 00:49:20;;;;;;;8.88;7.97;;;24.00;99.90;;;;;;5069269;28;20272;-75
2021/07/17 00:51:47;;;;;;;9.95;7.57;;;24.00;99.90;;;;;;5069693;28;20199;-75
2021/07/17 00:54:19;;;;;;;9.00;8.10;;;24.00;99.90;;;;;;5069254;28;20677;-75
2021/07/17 00:56:47;;;;;;;9.63;7.90;;;24.00;99.90;;;;;;5069665;28;20224;-76
2021/07/17 00:59:16;;;;;;;10.18;7.53;;;24.00;99.90;;;;;;5069314;28;20664;-75
2021/07/17 01:01:44;;;;;;;9.07;8.27;;;24.00;99.90;;;;;;5069765;28;20268;-75
2021/07/17 01:04:13;;;;;;;7.70;6.95;;;24.00;99.90;;;;;;5069579;28;20289;-76
2021/07/17 01:06:40;;;;;;;8.27;7.45;;;23.90;99.90;;;;;;5069331;28;20738;-75
2021/07/17 01:09:07;;;;;;;8.70;7.28;;;23.90;99.90;;;;;;5033869;28;1016661;-74
2021/07/17 01:11:34;;;;;;;9.75;7.35;;;23.70;99.90;;;;;;5070130;28;20207;-74
2021/07/17 01:14:00;;;;;;;8.27;7.47;;;23.80;99.90;;;;;;5065341;28;20278;-75
2021/07/17 01:16:27;;;;;;;7.63;6.93;;;23.80;99.90;;;;;;5050010;28;20313;-73
2021/07/17 01:18:55;;;;;;;10.60;6.88;;;23.70;99.90;;;;;;5049989;28;20204;-75
2021/07/17 01:21:23;;;;;;;7.60;7.00;;;23.70;99.90;;;;;;5049829;28;20211;-75
2021/07/17 01:23:50;;;;;;;8.40;6.20;;;23.70;99.90;;;;;;5049922;28;20239;-74
2021/07/17 01:26:17;;;;;;;7.43;6.60;;;23.70;99.90;;;;;;5050058;28;20212;-74
2021/07/17 01:28:44;;;;;;;6.70;6.07;;;23.50;99.90;;;;;;5049814;28;20241;-74
2021/07/17 01:31:11;;;;;;;12.23;6.15;;;23.60;99.90;;;;;;5049607;28;20377;-74
2021/07/17 01:33:39;;;;;;;7.70;6.05;;;23.60;99.90;;;;;;5049839;28;20236;-74
2021/07/17 01:36:06;;;;;;;9.38;6.38;;;23.60;99.90;;;;;;5049622;28;20239;-74
2021/07/17 01:38:34;;;;;;;7.43;6.07;;;23.60;99.90;;;;;;5048974;28;20236;-74
2021/07/17 01:41:02;;;;;;;7.38;5.50;;;23.60;99.90;;;;;;5049701;28;20228;-74
2021/07/17 01:43:28;;;;;;;9.10;6.30;;;23.60;99.90;;;;;;5049811;28;20204;-74
2021/07/17 01:45:58;;;;;;;6.40;5.80;;;23.70;99.90;;;;;;5049739;28;20212;-74
2021/07/17 01:48:25;;;;;;;7.15;6.45;;;23.60;99.90;;;;;;5049313;28;20214;-74
2021/07/17 01:50:52;;;;;;;7.10;6.20;;;23.60;99.90;;;;;;5049614;28;20646;-74
2021/07/17 01:53:18;;;;;;;5.93;5.43;;;23.60;99.90;;;;;;5049357;28;20204;-74
2021/07/17 01:55:46;;;;;;;6.25;5.72;;;23.60;99.90;;;;;;5049662;28;20616;-74
2021/07/17 01:58:13;;;;;;;6.68;5.38;;;23.60;99.90;;;;;;5049687;28;20256;-74
2021/07/17 02:00:41;;;;;;;7.55;5.70;;;23.60;99.90;;;;;;5049360;28;20228;-74
2021/07/17 02:03:08;;;;;;;6.18;5.53;;;23.60;99.90;;;;;;5049205;28;20747;-74
2021/07/17 02:05:35;;;;;;;5.75;5.28;;;23.50;99.90;;;;;;5049295;28;20265;-74
2021/07/17 02:08:01;;;;;;;6.20;5.32;;;23.50;99.90;;;;;;5049435;28;20330;-74
2021/07/17 02:10:31;;;;;;;8.68;5.00;;;23.50;99.90;;;;;;5049302;28;20203;-72
2021/07/17 02:13:04;;;;;;;5.85;5.28;;;23.50;99.90;;;;;;5048593;28;20204;-73
2021/07/17 02:15:32;;;;;;;8.75;4.93;;;23.40;99.90;;;;;;5049065;28;20219;-73
2021/07/17 02:18:00;;;;;;;5.78;5.22;;;23.50;99.90;;;;;;5048741;28;20303;-73
2021/07/17 02:20:27;;;;;;;6.13;5.03;;;23.40;99.90;;;;;;5048706;28;20238;-73
2021/07/17 02:22:54;;;;;;;5.05;4.70;;;23.40;99.90;;;;;;5048819;28;20212;-73
2021/07/17 02:25:21;;;;;;;5.90;5.30;;;23.30;99.90;;;;;;5048547;28;20282;-75
2021/07/17 02:27:48;;;;;;;7.10;5.57;;;23.40;99.90;;;;;;5049031;28;20204;-74
2021/07/17 02:30:16;;;;;;;5.57;5.07;;;23.30;99.90;;;;;;5048729;28;20211;-74
2021/07/17 02:32:43;;;;;;;12.57;5.25;;;23.30;99.90;;;;;;5048928;28;20232;-74
2021/07/17 02:35:11;;;;;;;4.75;4.38;;;23.30;99.90;;;;;;5049135;28;20589;-74
2021/07/17 02:37:38;;;;;;;6.22;5.25;;;23.20;99.90;;;;;;5048759;28;20231;-73
2021/07/17 02:40:09;;;;;;;5.32;4.90;;;23.30;99.90;;;;;;5048185;28;20231;-73
2021/07/17 02:42:39;;;;;;;7.63;5.55;;;23.30;99.90;;;;;;5048187;28;20775;-73
2021/07/17 02:45:07;;;;;;;5.40;5.00;;;23.10;99.90;;;;;;5048464;28;20811;-73
2021/07/17 02:47:36;;;;;;;5.75;4.78;;;23.10;99.90;;;;;;5048763;28;20610;-73
2021/07/17 02:50:03;;;;;;;7.47;5.13;;;23.10;99.90;;;;;;5048610;28;20267;-76
2021/07/17 02:52:30;;;;;;;6.63;4.72;;;23.10;99.90;;;;;;5048450;28;20254;-76
2021/07/17 02:54:57;;;;;;;5.55;4.90;;;23.00;99.90;;;;;;5048624;28;20632;-76
2021/07/17 02:57:23;;;;;;;6.85;5.10;;;23.00;99.90;;;;;;5048636;28;20257;-76
2021/07/17 02:59:50;;;;;;;6.85;4.60;;;23.20;99.90;;;;;;5048602;28;20317;-75
2021/07/17 03:02:17;;;;;;;6.47;4.97;;;23.10;99.90;;;;;;5048553;28;20647;-76
2021/07/17 03:04:45;;;;;;;6.30;5.35;;;23.20;99.90;;;;;;5048836;28;20212;-75
2021/07/17 03:07:11;;;;;;;8.00;4.97;;;23.10;99.90;;;;;;5048525;28;20204;-73
2021/07/17 03:09:38;;;;;;;4.78;4.40;;;23.20;99.90;;;;;;5047907;28;20752;-72
2021/07/17 03:12:06;;;;;;;5.50;4.95;;;23.20;99.90;;;;;;5048245;28;20232;-72
2021/07/17 03:14:33;;;;;;;7.28;5.30;;;23.20;99.90;;;;;;5048008;28;20286;-72
2021/07/17 03:17:00;;;;;;;12.18;5.22;;;23.10;99.90;;;;;;5048247;28;20250;-72
2021/07/17 03:19:27;;;;;;;6.50;5.13;;;23.20;99.90;;;;;;5048004;28;20589;-72
2021/07/17 03:21:55;;;;;;;5.43;4.78;;;23.20;99.90;;;;;;5048143;28;20267;-76
2021/07/17 03:24:21;;;;;;;8.70;5.03;;;23.20;99.90;;;;;;5048478;28;20240;-76
2021/07/17 03:26:48;;;;;;;5.88;4.55;;;23.20;99.90;;;;;;5048603;28;20216;-76
2021/07/17 03:29:14;;;;;;;5.82;5.32;;;23.20;99.90;;;;;;5048145;28;20251;-73
2021/07/17 03:31:41;;;;;;;7.47;5.32;;;23.30;99.90;;;;;;5047761;28;20207;-74
2021/07/17 03:34:08;;;;;;;6.93;5.03;;;23.30;99.90;;;;;;5048092;28;20270;-73
2021/07/17 03:36:34;;;;;;;7.28;5.00;;;23.20;99.90;;;;;;5048183;28;20232;-73
2021/07/17 03:39:02;;;;;;;7.82;5.57;;;23.20;99.90;;;;;;5047920;28;20208;-73
2021/07/17 03:41:29;;;;;;;10.48;5.72;;;23.20;99.90;;;;;;5047737;28;20309;-73
2021/07/17 03:43:56;;;;;;;9.10;5.32;;;23.20;99.90;;;;;;5047833;28;20266;-74
2021/07/17 03:46:22;;;;;;;8.45;5.50;;;23.20;99.90;;;;;;5047954;28;20239;-76
2021/07/17 03:48:49;;;;;;;9.18;5.80;;;23.20;99.90;;;;;;5048142;28;20290;-76
2021/07/17 03:51:15;;;;;;;10.77;5.13;;;23.10;99.90;;;;;;5047707;28;20232;-76
2021/07/17 03:53:42;;;;;;;8.02;5.28;;;23.20;99.90;;;;;;5048028;28;20204;-73
2021/07/17 03:56:10;;;;;;;10.27;5.70;;;23.10;99.90;;;;;;5047588;28;20667;-72
2021/07/17 03:58:37;;;;;;;9.38;5.30;;;23.10;99.90;;;;;;5047754;28;20321;-73
2021/07/17 04:01:03;;;;;;;7.78;5.20;;;23.10;99.90;;;;;;5047356;28;20759;-73
2021/07/17 04:03:32;;;;;;;8.00;5.43;;;23.00;99.90;;;;;;5051224;28;20207;-73
2021/07/17 04:05:59;;;;;;;11.02;5.75;;;23.00;99.90;;;;;;5051278;28;20243;-73
2021/07/17 04:08:25;;;;;;;10.18;5.57;;;23.00;99.90;;;;;;5051178;28;20236;-73
2021/07/17 04:10:52;;;;;;;8.93;5.72;;;23.10;99.90;;;;;;5051200;28;20204;-73
2021/07/17 04:13:20;;;;;;;8.70;5.47;;;23.10;99.90;;;;;;5051086;28;20204;-73
2021/07/17 04:15:47;;;;;;;7.20;6.38;;;23.00;99.90;;;;;;5050894;28;20741;-73
2021/07/17 04:18:13;;;;;;;10.02;5.57;;;23.00;99.90;;;;;;5051058;28;20200;-73
2021/07/17 04:20:40;;;;;;;12.40;6.03;;;22.90;99.90;;;;;;5050979;28;20264;-73
2021/07/17 04:23:07;;;;;;;8.82;6.05;;;23.00;99.90;;;;;;5050882;28;20751;-72
2021/07/17 04:25:33;;;;;;;9.63;5.78;;;23.00;99.90;;;;;;5051115;28;20257;-72
2021/07/17 04:28:00;;;;;;;7.75;5.97;;;23.00;99.90;;;;;;5051132;28;20204;-72
2021/07/17 04:30:28;;;;;;;9.80;6.15;;;23.00;99.90;;;;;;5050783;28;20208;-72
2021/07/17 04:32:55;;;;;;;9.13;6.68;;;22.90;99.90;;;;;;5050899;28;20256;-72
2021/07/17 04:35:22;;;;;;;11.32;5.93;;;22.90;99.90;;;;;;5050738;28;20261;-73
2021/07/17 04:37:49;;;;;;;8.85;6.32;;;23.00;99.90;;;;;;5050628;28;20216;-73
2021/07/17 04:40:16;;;;;;;12.27;5.95;;;23.10;99.90;;;;;;5050583;28;20212;-73
2021/07/17 04:42:42;;;;;;;13.25;6.88;;;23.10;99.90;;;;;;5050456;28;20219;-73
2021/07/17 04:45:10;;;;;;;9.50;6.07;;;23.10;99.90;;;;;;5050193;28;20715;-72
2021/07/17 04:47:38;;;;;;;12.50;6.68;;;23.20;99.90;;;;;;5050527;28;20208;-72
2021/07/17 04:50:05;;;;;;;8.32;6.18;;;23.20;99.90;;;;;;5050360;28;20693;-75
2021/07/17 04:52:32;;;;;;;9.57;5.80;;;23.20;99.90;;;;;;5050318;28;20601;-75
2021/07/17 04:54:59;;;;;;;10.40;6.88;;;23.30;99.90;;;;;;5050452;28;20265;-74
2021/07/17 04:57:25;;;;;;;14.18;6.43;;;23.30;99.90;;;;;;5050204;28;20224;-73
2021/07/17 04:59:52;;;;;;;12.15;7.28;;;23.30;99.90;;;;;;5050295;28;20204;-75
2021/07/17 05:02:18;;;;;;;13.88;6.82;;;23.30;99.90;;;;;;5050436;28;20239;-74
2021/07/17 05:04:46;;;;;;;9.02;6.22;;;23.30;99.90;;;;;;5050318;28;20212;-74
2021/07/17 05:07:13;;;;;;;13.45;6.90;;;23.30;99.90;;;;;;5050444;28;20724;-74
2021/07/17 05:09:42;;;;;;;11.70;7.03;;;23.30;99.90;;;;;;5049969;28;20283;-76
2021/07/17 05:12:09;;;;;;;13.35;7.05;;;23.20;99.90;;;;;;5050352;28;20289;-74
2021/07/17 05:14:35;;;;;;;10.05;6.55;;;23.20;99.90;;;;;;5048878;28;20239;-75
2021/07/17 05:17:06;;;;;;;10.43;6.72;;;23.20;99.90;;;;;;5050383;28;20308;-74
2021/07/17 05:19:32;;;;;;;10.77;7.22;;;23.30;99.90;;;;;;5050151;28;20282;-74
2021/07/17 05:22:00;;;;;;;10.30;7.18;;;23.30;99.90;;;;;;5050057;28;20267;-74
2021/07/17 05:24:27;;;;;;;10.48;7.40;;;23.30;99.90;;;;;;5049843;28;20204;-72
2021/07/17 05:26:53;;;;;;;13.40;6.93;;;23.30;99.90;;;;;;5049535;28;20697;-72
2021/07/17 05:29:20;;;;;;;9.88;6.57;;;23.30;99.90;;;;;;5049599;28;20208;-72
2021/07/17 05:31:47;;;;;;;9.27;7.22;;;23.20;99.90;;;;;;5049697;28;20243;-72
2021/07/17 05:34:13;;;;;;;12.00;7.57;;;23.20;99.90;;;;;;5049785;28;20238;-72
2021/07/17 05:36:42;;;;;;;10.60;6.90;;;23.10;99.90;;;;;;5049700;28;20247;-72
2021/07/17 05:39:10;;;;;;;10.30;7.75;;;23.10;99.90;;;;;;5049282;28;20622;-72
2021/07/17 05:41:38;;;;;;;10.25;6.97;;;23.10;99.90;;;;;;5049363;28;20228;-72
2021/07/17 05:44:05;;;;;;;11.43;8.07;;;23.10;99.90;;;;;;5049870;28;20216;-72
2021/07/17 05:46:32;;;;;;;11.73;7.45;;;23.10;99.90;;;;;;5049329;28;20577;-72
2021/07/17 05:48:58;;;;;;;10.85;7.80;;;23.10;99.90;;;;;;5049597;28;20311;-74
2021/07/17 05:51:25;;;;;;;12.88;8.32;;;23.20;99.90;;;;;;5049052;28;20625;-74
2021/07/17 05:53:52;;;;;;;10.73;8.02;;;23.20;99.90;;;;;;5049453;28;20212;-74
2021/07/17 05:56:20;;;;;;;9.45;8.55;;;23.20;99.90;;;;;;5049222;28;20265;-72
2021/07/17 05:58:46;;;;;;;10.60;8.70;;;23.20;99.90;;;;;;5049409;28;20657;-76
2021/07/17 06:01:13;;;;;;;11.32;8.38;;;23.20;99.90;;;;;;5049502;28;20235;-76
2021/07/17 06:03:41;;;;;;;9.95;8.60;;;23.20;99.90;;;;;;5049169;28;20204;-72
2021/07/17 06:06:09;;;;;;;12.35;8.82;;;23.20;99.90;;;;;;5049211;28;20208;-72
2021/07/17 06:08:35;;;;;;;10.90;8.27;;;23.30;99.90;;;;;;5048963;28;20347;-73
2021/07/17 06:11:03;;;;;;;11.63;9.43;;;23.30;99.90;;;;;;5048841;28;20222;-73
2021/07/17 06:13:31;;;;;;;10.38;8.88;;;23.20;99.90;;;;;;5048897;28;20289;-72
2021/07/17 06:15:57;;;;;;;9.82;8.77;;;23.20;99.90;;;;;;5048922;28;20204;-73
2021/07/17 06:18:24;;;;;;;13.52;9.98;;;23.20;99.90;;;;;;5049014;28;20269;-72
2021/07/17 06:20:51;;;;;;;12.43;10.50;;;23.30;99.90;;;;;;5048801;28;20224;-73
2021/07/17 06:23:17;;;;;;;11.52;9.90;;;23.30;99.90;;;;;;5049053;28;20208;-74
2021/07/17 06:25:44;;;;;;;11.80;10.15;;;23.30;99.90;;;;;;5048402;28;20744;-74
2021/07/17 06:28:11;;;;;;;12.02;10.38;;;23.50;99.90;;;;;;5048847;28;20238;-74
2021/07/17 06:30:38;;;;;;;10.88;9.77;;;23.50;99.90;;;;;;5048366;28;20627;-74
2021/07/17 06:33:05;;;;;;;11.05;9.85;;;23.50;99.90;;;;;;5048579;28;20228;-74
2021/07/17 06:35:32;;;;;;;11.52;10.35;;;23.50;99.90;;;;;;5048583;28;20204;-74
2021/07/17 06:37:58;;;;;;;11.57;10.52;;;23.50;99.90;;;;;;5048692;28;20282;-74
2021/07/17 06:40:25;;;;;;;12.60;11.30;;;23.60;99.90;;;;;;5048559;28;20297;-74
2021/07/17 06:42:52;;;;;;;11.98;10.73;;;23.60;99.90;;;;;;5048777;28;20235;-71
2021/07/17 06:45:20;;;;;;;12.32;11.02;;;23.60;99.90;;;;;;5048148;28;20208;-71
2021/07/17 06:47:51;;;;;;;11.32;10.43;;;23.60;99.90;;;;;;5048456;28;20572;-72
2021/07/17 06:50:21;;;;;;;15.70;11.15;;;23.60;99.90;;;;;;5048468;28;20189;-75
2021/07/17 06:52:48;;;;;;;13.88;12.45;;;23.60;99.90;;;;;;5048339;28;20208;-74
2021/07/17 06:55:14;;;;;;;14.02;11.30;;;23.50;99.90;;;;;;5048224;28;20243;-74
2021/07/17 06:57:43;;;;;;;15.13;12.60;;;23.40;99.90;;;;;;5048322;28;20255;-76
2021/07/17 07:00:12;;;;;;;12.45;11.35;;;23.50;99.90;;;;;;5048551;28;20216;-75
2021/07/17 07:02:39;;;;;;;12.75;11.05;;;23.50;99.90;;;;;;5048467;28;20257;-75
2021/07/17 07:05:08;;;;;;;13.20;10.63;;;23.60;99.90;;;;;;5048452;28;20253;-75
2021/07/17 07:07:35;;;;;;;12.75;11.45;;;23.70;99.90;;;;;;5048037;28;20254;-75
2021/07/17 07:10:02;;;;;;;15.27;12.07;;;23.70;99.90;;;;;;5047795;28;20236;-75
2021/07/17 07:12:29;;;;;;;12.93;11.63;;;23.70;99.90;;;;;;5048151;28;20212;-75
2021/07/17 07:14:55;;;;;;;12.52;11.38;;;23.70;99.90;;;;;;5048212;28;20258;-74
2021/07/17 07:17:22;;;;;;;17.05;12.13;;;23.80;99.90;;;;;;5048208;28;20554;-74
2021/07/17 07:19:48;;;;;;;17.60;12.20;;;23.80;99.90;;;;;;5048205;28;20270;-74
2021/07/17 07:22:16;;;;;;;13.50;12.20;;;23.80;99.90;;;;;;5048031;28;20267;-74
2021/07/17 07:24:43;;;;;;;14.65;12.60;;;23.80;99.90;;;;;;5048185;28;20208;-74
2021/07/17 07:27:10;;;;;;;13.48;12.07;;;23.80;99.90;;;;;;5048211;28;20274;-74
2021/07/17 07:29:36;;;;;;;15.77;13.32;;;23.80;99.90;;;;;;5047787;28;20783;-74
2021/07/17 07:32:04;;;;;;;12.88;11.60;;;23.80;99.90;;;;;;5047760;28;20706;-77
2021/07/17 07:34:30;;;;;;;15.77;13.02;;;23.80;99.90;;;;;;5048190;28;20289;-74
2021/07/17 07:36:57;;;;;;;15.05;12.65;;;23.80;99.90;;;;;;5049156;28;20208;-74
2021/07/17 07:39:25;;;;;;;15.88;12.45;;;23.80;99.90;;;;;;5051649;28;20208;-74
2021/07/17 07:41:52;;;;;;;12.93;11.73;;;23.80;99.90;;;;;;5051839;28;20286;-74
2021/07/17 07:44:19;;;;;;;13.85;12.50;;;23.80;99.90;;;;;;5052015;28;20265;-74
2021/07/17 07:46:45;;;;;;;16.42;12.20;;;23.90;99.90;;;;;;5051866;28;20212;-74
2021/07/17 07:49:13;;;;;;;13.20;12.00;;;23.90;99.90;;;;;;5051795;28;20212;-74
2021/07/17 07:51:40;;;;;;;15.57;12.50;;;24.00;99.90;;;;;;5051562;28;20219;-75
2021/07/17 07:54:06;;;;;;;13.48;12.25;;;24.00;99.90;;;;;;5051856;28;20212;-75
2021/07/17 07:56:34;;;;;;;13.93;12.50;;;24.10;99.90;;;;;;5051479;28;20939;-75
2021/07/17 07:59:01;;;;;;;12.93;11.65;;;24.10;99.90;;;;;;5051497;28;20670;-75
2021/07/17 08:01:27;;;;;;;14.00;12.60;;;24.10;99.90;;;;;;5051229;28;20307;-75
2021/07/17 08:03:54;;;;;;;13.95;12.43;;;24.20;99.90;;;;;;5051557;28;20261;-75
2021/07/17 08:06:21;;;;;;;13.85;12.45;;;24.20;99.90;;;;;;5051556;28;20768;-75
2021/07/17 08:08:47;;;;;;;13.90;12.43;;;24.30;99.90;;;;;;5051273;28;20285;-75
2021/07/17 08:11:14;;;;;;;14.10;12.73;;;24.40;99.90;;;;;;5051311;28;20204;-73
2021/07/17 08:13:42;;;;;;;15.98;13.50;;;24.40;99.90;;;;;;5051356;28;20236;-74
2021/07/17 08:16:10;;;;;;;14.43;13.05;;;24.40;99.90;;;;;;5051545;28;20200;-75
2021/07/17 08:18:37;;;;;;;14.68;13.23;;;24.50;99.90;;;;;;5057817;28;20203;-74
2021/07/17 08:21:04;;;;;;;14.73;12.85;;;24.50;99.90;;;;;;5068274;28;20208;-73
2021/07/17 08:23:31;;;;;;;13.40;12.10;;;24.50;99.90;;;;;;5068326;28;20281;-75
2021/07/17 08:25:57;;;;;;;13.50;12.25;;;24.60;99.90;;;;;;5070438;28;20724;-75
2021/07/17 08:28:24;;;;;;;14.88;13.35;;;24.60;99.90;;;;;;5065900;28;20250;-73
2021/07/17 08:30:52;;;;;;;14.13;12.23;;;24.60;99.90;;;;;;5067464;28;20196;-74
2021/07/17 08:33:18;;;;;;;14.15;12.85;;;24.60;99.90;;;;;;5070299;28;20238;-75
2021/07/17 08:35:45;;;;;;;13.73;12.43;;;24.60;99.90;;;;;;5070411;28;20200;-75
2021/07/17 08:38:12;;;;;;;13.68;12.32;;;24.60;99.90;;;;;;5070422;28;20571;-75
2021/07/17 08:40:39;;;;;;;13.45;12.25;;;24.70;99.90;;;;;;5067704;28;20235;-74
2021/07/17 08:43:05;;;;;;;13.60;12.27;;;24.70;99.90;;;;;;5070401;28;20219;-75
2021/07/17 08:45:32;;;;;;;14.18;12.77;;;24.80;99.90;;;;;;5070521;28;20207;-74
2021/07/17 08:48:00;;;;;;;14.13;12.35;;;24.80;99.90;;;;;;5067839;28;20235;-75
2021/07/17 08:50:28;;;;;;;14.43;11.95;;;24.90;99.90;;;;;;5068114;28;20576;-74
2021/07/17 08:52:56;;;;;;;14.40;13.02;;;24.90;99.90;;;;;;5067955;28;20207;-74
2021/07/17 08:55:24;;;;;;;13.55;12.35;;;24.90;99.90;;;;;;5068221;28;20298;-73
2021/07/17 08:57:51;;;;;;;14.63;13.07;;;25.00;99.90;;;;;;5068287;28;20242;-74
2021/07/17 09:00:20;;;;;;;13.30;12.02;;;25.00;99.90;;;;;;5068642;28;20211;-77
2021/07/17 09:02:49;;;;;;;13.98;12.73;;;25.00;99.90;;;;;;5068675;28;20257;-76
2021/07/17 09:05:18;;;;;;;13.95;12.57;;;25.00;99.90;;;;;;5064111;28;20249;-74
2021/07/17 09:07:46;;;;;;;13.98;12.82;;;25.00;99.90;;;;;;5067866;28;20203;-74
2021/07/17 09:10:30;;;;;;;15.10;13.60;;;24.90;99.90;;;;;;5051685;28;20275;-73
2021/07/17 09:13:14;;;;;;;14.05;12.75;;;24.90;99.90;;;;;;5047974;28;20216;-74
2021/07/17 09:15:43;;;;;;;13.65;12.35;;;25.00;99.90;;;;;;5059637;28;20207;-73
2021/07/17 09:18:10;;;;;;;14.80;13.40;;;25.10;99.90;;;;;;5056862;28;20244;-73
2021/07/17 09:20:39;;;;;;;14.23;12.93;;;25.20;99.90;;;;;;5047326;28;20266;-73
2021/07/17 09:23:09;;;;;;;15.32;13.75;;;25.20;99.90;;;;;;5052174;28;20635;-74
2021/07/17 09:25:39;;;;;;;14.15;12.75;;;25.20;99.90;;;;;;5067422;28;20203;-73
2021/07/17 09:28:18;;;;;;;14.35;13.10;;;25.20;99.90;;;;;;5065435;28;20200;-73
2021/07/17 09:30:46;;;;;;;14.73;13.32;;;25.20;99.90;;;;;;5062352;28;20236;-73
2021/07/17 09:33:14;;;;;;;14.40;12.90;;;25.30;99.90;;;;;;5064267;28;20762;-74
2021/07/17 09:35:43;;;;;;;13.55;12.32;;;25.20;99.90;;;;;;5069633;28;20200;-74
2021/07/17 09:38:11;;;;;;;15.23;13.68;;;25.10;99.90;;;;;;5069228;28;20673;-73
2021/07/17 09:40:50;;;;;;;13.82;12.55;;;25.00;99.90;;;;;;5069374;28;20211;-74
2021/07/17 09:43:32;;;;;;;14.23;12.77;;;25.00;99.90;;;;;;5068740;28;20277;-74
2021/07/17 09:45:59;;;;;;;13.60;12.20;;;25.00;99.90;;;;;;5069525;28;20269;-74
2021/07/17 09:48:28;;;;;;;13.93;12.63;;;25.00;99.90;;;;;;5069313;28;20231;-74
2021/07/17 09:50:58;;;;;;;13.68;12.35;;;25.00;99.90;;;;;;5069230;28;20204;-74
2021/07/17 09:53:43;;;;;;;14.30;12.88;;;25.00;99.90;;;;;;5069374;28;20211;-74
2021/07/17 09:56:11;;;;;;;14.85;13.52;;;24.90;99.90;;;;;;5069327;28;20254;-74
2021/07/17 09:58:39;;;;;;;13.52;12.18;;;24.90;99.90;;;;;;5068891;28;20207;-74
2021/07/17 10:01:23;;;;;;;14.27;13.00;;;24.90;99.90;;;;;;5068602;28;20222;-74
2021/07/17 10:03:52;;;;;;;15.23;13.43;;;25.00;99.90;;;;;;5068659;28;20789;-74
2021/07/17 10:06:32;;;;;;;15.23;13.80;;;25.00;99.90;;;;;;5069328;28;20227;-74
2021/07/17 10:09:00;;;;;;;15.55;14.13;;;25.00;99.90;;;;;;5068705;28;20246;-74
2021/07/17 10:11:28;;;;;;;15.48;12.32;;;25.10;99.90;;;;;;5068788;28;20654;-74
2021/07/17 10:13:55;;;;;;;15.18;13.60;;;25.10;99.90;;;;;;5068975;28;20208;-74
2021/07/17 10:16:24;;;;;;;14.80;13.35;;;25.20;99.90;;;;;;5069035;28;20216;-74
2021/07/17 10:18:53;;;;;;;14.00;12.73;;;25.30;99.90;;;;;;5068830;28;20204;-74
2021/07/17 10:21:20;;;;;;;16.23;13.23;;;25.40;99.90;;;;;;5068946;28;20237;-74
2021/07/17 10:23:48;;;;;;;14.57;13.23;;;25.50;99.90;;;;;;5068419;28;20669;-74
2021/07/17 10:26:16;;;;;;;14.60;13.35;;;25.60;99.90;;;;;;5068693;28;20297;-74
2021/07/17 10:28:43;;;;;;;14.25;12.95;;;25.70;99.90;;;;;;5068701;28;20264;-74
2021/07/17 10:31:09;;;;;;;15.23;13.75;;;25.80;99.90;;;;;;5068330;28;20203;-74
2021/07/17 10:33:36;;;;;;;14.25;12.95;;;25.80;99.90;;;;;;5068529;28;20203;-74
2021/07/17 10:36:09;;;;;;;14.27;12.98;;;25.90;99.90;;;;;;5068220;28;20207;-74
2021/07/17 10:38:39;;;;;;;15.20;13.90;;;26.00;99.90;;;;;;5048223;28;20968;-74
2021/07/17 10:41:09;;;;;;;13.95;12.63;;;26.10;99.90;;;;;;5049838;28;20207;-74
2021/07/17 10:43:36;;;;;;;13.70;12.30;;;26.10;99.90;;;;;;5061669;28;20285;-76
2021/07/17 10:46:02;;;;;;;14.45;13.15;;;26.10;99.90;;;;;;5062232;28;20609;-76
2021/07/17 10:48:31;;;;;;;13.65;12.30;;;26.10;99.90;;;;;;5068537;28;20207;-75
2021/07/17 10:51:00;;;;;;;13.55;12.35;;;26.20;99.90;;;;;;5066369;28;20214;-74
2021/07/17 10:53:48;;;;;;;12.60;11.55;;;26.40;99.90;;;;;;5066400;28;20230;-72
2021/07/17 10:56:36;;;;;;;13.02;11.93;;;26.40;99.90;;;;;;5067620;28;20273;-72
2021/07/17 10:59:09;;;;;;;13.13;12.10;;;26.60;99.90;;;;;;5068168;28;20215;-73
2021/07/17 11:02:05;;;;;;;13.73;12.15;;;26.70;99.90;;;;;;5067972;28;20188;-73
2021/07/17 11:04:38;;;;;;;13.45;12.18;;;26.80;99.90;;;;;;5067876;28;20214;-73
2021/07/17 11:07:34;;;;;;;13.57;12.38;;;26.70;99.90;;;;;;5068212;28;20219;-73
2021/07/17 11:10:08;;;;;;;12.95;11.70;;;26.70;99.90;;;;;;5067946;28;20235;-73
2021/07/17 11:12:57;;;;;;;12.75;11.60;;;26.80;99.90;;;;;;5072442;28;20201;-72
2021/07/17 11:15:49;;;;;;;12.98;11.75;;;27.00;99.90;;;;;;5072020;28;20226;-73
2021/07/17 11:18:23;;;;;;;12.65;11.65;;;27.20;99.90;;;;;;5072170;28;20226;-73
2021/07/17 11:20:51;;;;;;;13.43;11.57;;;27.40;99.90;;;;;;5071494;28;20754;-73
2021/07/17 11:23:19;;;;;;;11.38;10.25;;;27.40;99.90;;;;;;5072152;28;20235;-73
2021/07/17 11:25:57;;;;;;;11.43;10.52;;;27.40;99.90;;;;;;5071730;28;20290;-72
2021/07/17 11:29:03;;;;;;;11.13;10.15;;;27.50;99.90;;;;;;5071759;28;20195;-73
2021/07/17 11:31:39;;;;;;;11.70;10.73;;;27.70;99.90;;;;;;5061264;28;20253;-75
2021/07/17 11:34:46;;;;;;;11.10;10.20;;;27.90;99.90;;;;;;5060407;28;20218;-74
2021/07/17 11:37:28;;;;;;;11.02;10.02;;;28.20;99.90;;;;;;5063858;28;20200;-72
2021/07/17 11:39:57;;;;;;;11.07;10.18;;;28.40;99.90;;;;;;5066884;28;20207;-72
2021/07/17 11:42:25;;;;;;;11.65;10.65;;;28.40;99.90;;;;;;5061092;28;20288;-72
2021/07/17 11:44:54;;;;;;;11.40;10.40;;;28.50;99.90;;;;;;5069121;28;20231;-72
2021/07/17 11:47:24;;;;;;;11.63;10.52;;;28.50;99.90;;;;;;5068584;28;20227;-73
2021/07/17 11:49:53;;;;;;;12.10;10.38;;;28.50;99.90;;;;;;5068657;28;20206;-73
2021/07/17 11:52:21;;;;;;;10.98;10.07;;;28.40;99.90;;;;;;5068857;28;20658;-73
2021/07/17 11:54:52;;;;;;;11.68;10.68;;;28.40;99.90;;;;;;5068840;28;20231;-73
2021/07/17 11:57:20;;;;;;;12.65;9.90;;;28.50;99.90;;;;;;5068881;28;20234;-73
2021/07/17 11:59:56;;;;;;;11.32;10.43;;;28.70;99.90;;;;;;5069132;28;20269;-73
2021/07/17 12:02:25;;;;;;;10.82;9.75;;;28.60;99.90;;;;;;5068535;28;20199;-73
2021/07/17 12:04:54;;;;;;;11.32;10.43;;;28.70;99.90;;;;;;5069023;28;20250;-73
2021/07/17 12:07:23;;;;;;;11.07;9.98;;;28.90;99.90;;;;;;5068812;28;20208;-73
2021/07/17 12:09:51;;;;;;;11.10;10.20;;;28.90;99.90;;;;;;5068236;28;20247;-73
2021/07/17 12:12:30;;;;;;;11.05;9.98;;;28.80;99.90;;;;;;5069144;28;20207;-73
2021/07/17 12:15:00;;;;;;;10.43;9.73;;;29.00;99.90;;;;;;5068760;28;20196;-73
2021/07/17 12:17:31;;;;;;;10.90;9.80;;;29.10;99.90;;;;;;5068964;28;20277;-73
2021/07/17 12:20:10;;;;;;;10.70;9.80;;;29.30;99.90;;;;;;5065310;28;20293;-73
2021/07/17 12:22:44;;;;;;;11.63;9.57;;;29.50;99.90;;;;;;5058713;28;20688;-73
2021/07/17 12:25:16;;;;;;;10.70;9.75;;;29.60;99.90;;;;;;5069162;28;20386;-73
2021/07/17 12:27:54;;;;;;;10.82;9.77;;;29.70;99.90;;;;;;5069325;28;20289;-73
2021/07/17 12:30:21;;;;;;;12.40;11.30;;;29.50;99.90;;;;;;5069042;28;20199;-76
2021/07/17 12:32:49;;;;;;;10.57;9.70;;;29.30;99.90;;;;;;5068840;28;20238;-76
2021/07/17 12:35:23;;;;;;;11.73;10.82;;;29.40;99.90;;;;;;5068920;28;20609;-75
2021/07/17 12:37:50;;;;;;;12.55;11.45;;;29.40;99.90;;;;;;5068039;28;20211;-74
2021/07/17 12:40:17;;;;;;;12.40;11.30;;;29.40;99.90;;;;;;5070386;28;20477;-74
2021/07/17 12:42:45;;;;;;;11.77;10.68;;;29.60;99.90;;;;;;5069660;28;20670;-74